createdAt,value
2018-09-28T00:00:24.030Z,0
2018-09-28T00:01:25.537Z,0
2018-09-28T00:02:26.150Z,0
2018-09-28T00:03:26.207Z,0
2018-09-28T00:04:26.992Z,0
2018-09-28T00:05:27.770Z,0
2018-09-28T00:06:28.550Z,0
2018-09-28T00:07:29.888Z,0
2018-09-28T00:08:30.665Z,0
2018-09-28T00:09:32.004Z,0
2018-09-28T00:10:32.412Z,0
2018-09-28T00:11:32.919Z,0
2018-09-28T00:12:33.700Z,0
2018-09-28T00:13:34.206Z,0
2018-09-28T00:14:34.991Z,0
2018-09-28T00:15:35.770Z,0
2018-09-28T00:16:37.108Z,0
2018-09-28T00:17:37.167Z,0
2018-09-28T00:18:37.952Z,0
2018-09-28T00:19:38.460Z,0
2018-09-28T00:20:39.519Z,0
2018-09-28T00:21:40.472Z,0
2018-09-28T00:22:41.534Z,0
2018-09-28T00:23:42.037Z,0
2018-09-28T00:24:42.820Z,0
2018-09-28T00:25:43.878Z,0
2018-09-28T00:26:44.935Z,0
2018-09-28T00:27:45.719Z,0
2018-09-28T00:28:46.500Z,0
2018-09-28T00:29:47.562Z,0
2018-09-28T00:30:47.341Z,0
2018-09-28T00:31:48.848Z,0
2018-09-28T00:32:49.186Z,0
2018-09-28T00:33:49.965Z,0
2018-09-28T00:34:51.027Z,0
2018-09-28T00:35:52.647Z,0
2018-09-28T00:36:51.953Z,0
2018-09-28T00:37:53.289Z,0
2018-09-28T00:38:54.347Z,0
2018-09-28T00:39:55.682Z,0
2018-09-28T00:40:56.462Z,0
2018-09-28T00:41:56.996Z,0
2018-09-28T00:42:57.057Z,0
2018-09-28T00:43:58.393Z,0
2018-09-28T00:44:59.456Z,0
2018-09-28T00:45:59.513Z,0
2018-09-28T00:47:00.295Z,0
2018-09-28T00:48:02.463Z,0
2018-09-28T00:49:01.965Z,0
2018-09-28T00:50:02.754Z,0
2018-09-28T00:51:03.259Z,0
2018-09-28T00:52:03.771Z,0
2018-09-28T00:53:04.277Z,0
2018-09-28T00:54:05.616Z,0
2018-09-28T00:55:06.232Z,0
2018-09-28T00:56:05.736Z,0
2018-09-28T00:57:06.237Z,0
2018-09-28T00:58:08.301Z,0
2018-09-28T00:59:08.636Z,0
2018-09-28T01:00:09.418Z,0
2018-09-28T01:01:10.477Z,0
2018-09-28T01:02:11.712Z,0
2018-09-28T01:03:11.772Z,0
2018-09-28T01:04:12.000Z,0
2018-09-28T01:05:13.057Z,0
2018-09-28T01:06:13.834Z,0
2018-09-28T01:07:14.336Z,0
2018-09-28T01:08:14.844Z,0
2018-09-28T01:09:16.905Z,0
2018-09-28T01:10:17.409Z,0
2018-09-28T01:11:17.914Z,0
2018-09-28T01:12:18.463Z,0
2018-09-28T01:13:19.249Z,0
2018-09-28T01:14:20.142Z,0
2018-09-28T01:15:21.478Z,0
2018-09-28T01:16:21.983Z,0
2018-09-28T01:17:22.767Z,0
2018-09-28T01:18:23.824Z,0
2018-09-28T01:19:24.615Z,0
2018-09-28T01:20:25.393Z,0
2018-09-28T01:21:27.174Z,0
2018-09-28T01:22:28.236Z,0
2018-09-28T01:23:28.573Z,0
2018-09-28T01:24:29.077Z,0
2018-09-28T01:25:30.133Z,0
2018-09-28T01:26:30.364Z,0
2018-09-28T01:27:31.866Z,0
2018-09-28T01:28:32.369Z,0
2018-09-28T01:29:33.877Z,0
2018-09-28T01:30:34.939Z,0
2018-09-28T01:31:35.163Z,0
2018-09-28T01:32:35.841Z,0
2018-09-28T01:33:37.623Z,0
2018-09-28T01:34:38.958Z,0
2018-09-28T01:35:40.020Z,0
2018-09-28T01:36:40.083Z,0
2018-09-28T01:37:40.586Z,0
2018-09-28T01:38:41.368Z,0
2018-09-28T01:39:42.150Z,0
2018-09-28T01:40:43.210Z,0
2018-09-28T01:41:43.715Z,0
2018-09-28T01:42:44.688Z,0
2018-09-28T01:43:45.751Z,0
2018-09-28T01:44:45.528Z,0
2018-09-28T01:45:46.310Z,0
2018-09-28T01:46:47.093Z,0
2018-09-28T01:47:47.445Z,0
2018-09-28T01:48:47.952Z,0
2018-09-28T01:49:49.011Z,0
2018-09-28T01:50:49.793Z,0
2018-09-28T01:51:50.578Z,0
2018-09-28T01:52:51.255Z,0
2018-09-28T01:53:52.315Z,0
2018-09-28T01:54:53.375Z,0
2018-09-28T01:55:54.159Z,0
2018-09-28T01:56:54.936Z,0
2018-09-28T01:57:56.549Z,0
2018-09-28T01:58:57.328Z,0
2018-09-28T01:59:57.944Z,0
2018-09-28T02:00:57.727Z,0
2018-09-28T02:01:59.508Z,0
2018-09-28T02:03:00.737Z,0
2018-09-28T02:04:01.521Z,0
2018-09-28T02:05:02.620Z,0
2018-09-28T02:06:03.686Z,0
2018-09-28T02:07:04.463Z,0
2018-09-28T02:08:04.969Z,0
2018-09-28T02:09:06.031Z,0
2018-09-28T02:10:07.100Z,0
2018-09-28T02:11:08.718Z,0
2018-09-28T02:12:08.941Z,0
2018-09-28T02:13:09.798Z,0
2018-09-28T02:14:10.583Z,0
2018-09-28T02:15:11.930Z,0
2018-09-28T02:16:11.713Z,0
2018-09-28T02:17:13.052Z,0
2018-09-28T02:18:13.285Z,0
2018-09-28T02:19:14.070Z,0
2018-09-28T02:20:15.415Z,0
2018-09-28T02:21:16.484Z,0
2018-09-28T02:22:16.540Z,0
2018-09-28T02:23:17.769Z,0
2018-09-28T02:24:18.841Z,0
2018-09-28T02:25:19.618Z,0
2018-09-28T02:26:20.121Z,0
2018-09-28T02:27:21.180Z,0
2018-09-28T02:28:21.685Z,0
2018-09-28T02:29:22.463Z,0
2018-09-28T02:30:24.418Z,0
2018-09-28T02:31:25.311Z,0
2018-09-28T02:32:26.095Z,0
2018-09-28T02:33:26.878Z,0
2018-09-28T02:34:27.658Z,0
2018-09-28T02:35:29.549Z,0
2018-09-28T02:36:29.377Z,0
2018-09-28T02:37:30.715Z,0
2018-09-28T02:38:31.219Z,0
2018-09-28T02:39:33.559Z,0
2018-09-28T02:40:33.890Z,0
2018-09-28T02:41:34.788Z,0
2018-09-28T02:42:35.293Z,0
2018-09-28T02:43:36.354Z,0
2018-09-28T02:44:37.985Z,0
2018-09-28T02:45:38.324Z,0
2018-09-28T02:46:38.664Z,0
2018-09-28T02:47:40.560Z,0
2018-09-28T02:48:40.911Z,0
2018-09-28T02:49:40.967Z,0
2018-09-28T02:50:41.309Z,0
2018-09-28T02:51:41.948Z,0
2018-09-28T02:52:43.011Z,0
2018-09-28T02:53:43.583Z,0
2018-09-28T02:54:44.923Z,0
2018-09-28T02:55:45.983Z,0
2018-09-28T02:56:47.904Z,0
2018-09-28T02:57:47.999Z,0
2018-09-28T02:58:49.611Z,0
2018-09-28T02:59:49.959Z,0
2018-09-28T03:00:50.017Z,0
2018-09-28T03:01:50.077Z,0
2018-09-28T03:02:51.140Z,0
2018-09-28T03:03:51.951Z,0
2018-09-28T03:04:52.731Z,0
2018-09-28T03:05:53.512Z,0
2018-09-28T03:06:55.858Z,0
2018-09-28T03:07:55.641Z,0
2018-09-28T03:08:57.527Z,0
2018-09-28T03:09:57.867Z,0
2018-09-28T03:10:58.479Z,0
2018-09-28T03:11:59.106Z,0
2018-09-28T03:13:01.003Z,0
2018-09-28T03:14:01.210Z,0
2018-09-28T03:15:02.022Z,0
2018-09-28T03:16:03.647Z,0
2018-09-28T03:17:04.281Z,0
2018-09-28T03:18:05.179Z,0
2018-09-28T03:19:05.537Z,0
2018-09-28T03:20:06.603Z,0
2018-09-28T03:21:07.384Z,0
2018-09-28T03:22:08.559Z,0
2018-09-28T03:23:08.893Z,0
2018-09-28T03:24:09.157Z,0
2018-09-28T03:25:10.218Z,0
2018-09-28T03:26:12.390Z,0
2018-09-28T03:27:12.449Z,0
2018-09-28T03:28:13.791Z,0
2018-09-28T03:29:14.617Z,0
2018-09-28T03:30:16.513Z,0
2018-09-28T03:31:16.848Z,0
2018-09-28T03:32:17.185Z,0
2018-09-28T03:33:18.251Z,0
2018-09-28T03:34:19.072Z,0
2018-09-28T03:35:19.851Z,0
2018-09-28T03:36:20.916Z,0
2018-09-28T03:37:21.847Z,0
2018-09-28T03:38:22.512Z,0
2018-09-28T03:39:23.855Z,0
2018-09-28T03:40:24.079Z,0
2018-09-28T03:41:25.389Z,0
2018-09-28T03:42:25.724Z,0
2018-09-28T03:43:27.057Z,0
2018-09-28T03:44:27.733Z,0
2018-09-28T03:45:29.066Z,0
2018-09-28T03:46:30.129Z,0
2018-09-28T03:47:31.743Z,0
2018-09-28T03:48:32.356Z,0
2018-09-28T03:49:33.151Z,0
2018-09-28T03:50:33.927Z,0
2018-09-28T03:51:34.991Z,0
2018-09-28T03:52:35.883Z,0
2018-09-28T03:53:35.666Z,0
2018-09-28T03:54:37.861Z,0
2018-09-28T03:55:37.199Z,0
2018-09-28T03:56:37.983Z,0
2018-09-28T03:57:38.038Z,0
2018-09-28T03:58:39.936Z,0
2018-09-28T03:59:39.714Z,0
2018-09-28T04:00:41.049Z,0
2018-09-28T04:01:42.109Z,0
2018-09-28T04:02:43.900Z,0
2018-09-28T04:03:43.387Z,0
2018-09-28T04:04:44.920Z,0
2018-09-28T04:05:45.702Z,0
2018-09-28T04:06:47.035Z,0
2018-09-28T04:07:47.652Z,0
2018-09-28T04:08:48.751Z,0
2018-09-28T04:09:49.365Z,0
2018-09-28T04:10:49.716Z,0
2018-09-28T04:11:50.632Z,0
2018-09-28T04:12:51.002Z,0
2018-09-28T04:13:51.797Z,0
2018-09-28T04:14:52.470Z,0
2018-09-28T04:15:53.145Z,0
2018-09-28T04:16:54.210Z,0
2018-09-28T04:17:54.993Z,0
2018-09-28T04:18:56.052Z,0
2018-09-28T04:19:56.943Z,0
2018-09-28T04:20:58.845Z,0
2018-09-28T04:21:59.221Z,0
2018-09-28T04:22:59.612Z,0
2018-09-28T04:24:00.228Z,0
2018-09-28T04:25:00.613Z,0
2018-09-28T04:26:01.515Z,0
2018-09-28T04:27:01.574Z,0
2018-09-28T04:28:03.194Z,0
2018-09-28T04:29:03.974Z,0
2018-09-28T04:30:05.596Z,0
2018-09-28T04:31:05.374Z,0
2018-09-28T04:32:06.431Z,0
2018-09-28T04:33:06.943Z,0
2018-09-28T04:34:07.727Z,0
2018-09-28T04:34:51.989Z,0
2018-09-28T04:35:53.524Z,0
2018-09-28T04:36:54.028Z,0
2018-09-28T04:37:54.528Z,0
2018-09-28T04:38:55.040Z,0
2018-09-28T04:39:55.840Z,0
2018-09-28T04:40:56.344Z,0
2018-09-28T04:41:57.401Z,4
2018-09-28T04:42:58.479Z,4
2018-09-28T04:44:00.257Z,0
2018-09-28T04:45:00.526Z,4
2018-09-28T04:46:01.155Z,4
2018-09-28T04:47:02.489Z,4
2018-09-28T04:48:03.270Z,4
2018-09-28T04:49:03.777Z,4
2018-09-28T04:50:04.832Z,4
2018-09-28T04:51:05.609Z,4
2018-09-28T04:52:06.391Z,8
2018-09-28T04:53:07.171Z,8
2018-09-28T04:54:07.952Z,8
2018-09-28T04:55:08.735Z,12
2018-09-28T04:56:10.099Z,12
2018-09-28T04:57:10.992Z,12
2018-09-28T04:58:11.335Z,20
2018-09-28T04:59:11.839Z,20
2018-09-28T05:00:13.181Z,24
2018-09-28T05:01:13.409Z,28
2018-09-28T05:02:13.913Z,32
2018-09-28T05:03:14.419Z,36
2018-09-28T05:04:15.478Z,40
2018-09-28T05:05:16.818Z,44
2018-09-28T05:06:16.794Z,48
2018-09-28T05:07:18.021Z,56
2018-09-28T05:08:19.812Z,60
2018-09-28T05:09:20.592Z,64
2018-09-28T05:10:21.372Z,72
2018-09-28T05:11:22.434Z,80
2018-09-28T05:12:23.213Z,88
2018-09-28T05:13:23.553Z,96
2018-09-28T05:14:24.058Z,104
2018-09-28T05:15:24.875Z,112
2018-09-28T05:16:25.824Z,120
2018-09-28T05:17:26.885Z,128
2018-09-28T05:18:27.691Z,140
2018-09-28T05:19:30.437Z,152
2018-09-28T05:20:30.958Z,160
2018-09-28T05:21:31.744Z,168
2018-09-28T05:22:33.080Z,176
2018-09-28T05:23:32.861Z,188
2018-09-28T05:24:34.202Z,200
2018-09-28T05:25:34.820Z,208
2018-09-28T05:26:35.063Z,224
2018-09-28T05:27:36.127Z,236
2018-09-28T05:28:37.473Z,248
2018-09-28T05:29:37.251Z,264
2018-09-28T05:30:56.515Z,284
2018-09-28T05:31:04.604Z,284
2018-09-28T05:32:04.380Z,300
2018-09-28T05:33:05.372Z,312
2018-09-28T05:34:05.187Z,328
2018-09-28T05:35:06.249Z,340
2018-09-28T05:36:07.038Z,360
2018-09-28T05:37:09.129Z,376
2018-09-28T05:38:09.112Z,396
2018-09-28T05:39:10.179Z,408
2018-09-28T05:40:09.687Z,428
2018-09-28T05:41:12.021Z,452
2018-09-28T05:42:12.530Z,472
2018-09-28T05:43:13.311Z,496
2018-09-28T05:44:14.096Z,520
2018-09-28T05:45:14.637Z,548
2018-09-28T05:46:16.654Z,1972
2018-09-28T05:47:16.050Z,3132
2018-09-28T05:48:17.112Z,6544
2018-09-28T05:49:17.898Z,7396
2018-09-28T05:50:18.691Z,10256
2018-09-28T05:51:19.850Z,9496
2018-09-28T05:52:19.427Z,8972
2018-09-28T05:53:20.220Z,7036
2018-09-28T05:54:20.729Z,2968
2018-09-28T05:55:21.516Z,5876
2018-09-28T05:56:22.028Z,6564
2018-09-28T05:57:23.647Z,8852
2018-09-28T05:58:24.879Z,14464
2018-09-28T05:59:24.979Z,15264
2018-09-28T06:00:25.493Z,14240
2018-09-28T06:01:26.837Z,15232
2018-09-28T06:02:28.078Z,12004
2018-09-28T06:03:28.872Z,6140
2018-09-28T06:04:30.212Z,5364
2018-09-28T06:05:30.772Z,8552
2018-09-28T06:06:31.339Z,4752
2018-09-28T06:07:31.965Z,2128
2018-09-28T06:08:31.772Z,2152
2018-09-28T06:09:35.276Z,3108
2018-09-28T06:10:34.852Z,4004
2018-09-28T06:11:34.927Z,3832
2018-09-28T06:12:35.880Z,3596
2018-09-28T06:13:37.392Z,2712
2018-09-28T06:14:37.584Z,1592
2018-09-28T06:15:39.205Z,1248
2018-09-28T06:16:39.271Z,1712
2018-09-28T06:17:40.334Z,1688
2018-09-28T06:18:41.985Z,1856
2018-09-28T06:19:42.415Z,1912
2018-09-28T06:20:43.283Z,2984
2018-09-28T06:21:44.343Z,2304
2018-09-28T06:22:45.575Z,1060
2018-09-28T06:23:46.093Z,968
2018-09-28T06:24:47.151Z,940
2018-09-28T06:25:48.652Z,940
2018-09-28T06:26:49.104Z,944
2018-09-28T06:27:50.615Z,964
2018-09-28T06:28:50.848Z,1080
2018-09-28T06:29:52.472Z,1140
2018-09-28T06:30:52.638Z,1024
2018-09-28T06:31:53.443Z,1020
2018-09-28T06:32:53.676Z,1040
2018-09-28T06:33:54.186Z,1152
2018-09-28T06:34:55.528Z,1288
2018-09-28T06:35:57.624Z,1216
2018-09-28T06:36:56.941Z,1136
2018-09-28T06:37:58.002Z,1156
2018-09-28T06:38:58.507Z,1196
2018-09-28T06:40:00.016Z,1788
2018-09-28T06:41:00.084Z,2476
2018-09-28T06:42:03.637Z,15136
2018-09-28T06:43:02.322Z,16416
2018-09-28T06:44:02.661Z,10576
2018-09-28T06:45:03.748Z,11852
2018-09-28T06:46:04.253Z,11668
2018-09-28T06:47:05.328Z,10928
2018-09-28T06:48:06.502Z,6200
2018-09-28T06:49:07.856Z,2420
2018-09-28T06:50:07.927Z,2280
2018-09-28T06:51:09.671Z,3080
2018-09-28T06:52:09.847Z,2432
2018-09-28T06:53:11.084Z,2404
2018-09-28T06:54:12.615Z,3764
2018-09-28T06:55:13.011Z,6924
2018-09-28T06:56:14.639Z,4844
2018-09-28T06:57:14.427Z,2744
2018-09-28T06:58:15.289Z,2932
2018-09-28T06:59:16.483Z,3032
2018-09-28T07:00:17.974Z,3020
2018-09-28T07:01:17.672Z,3028
2018-09-28T07:02:17.910Z,3096
2018-09-28T07:03:19.148Z,6436
2018-09-28T07:04:19.958Z,6596
2018-09-28T07:05:20.749Z,3540
2018-09-28T07:06:23.508Z,8544
2018-09-28T07:07:22.014Z,11632
2018-09-28T07:08:23.093Z,21888
2018-09-28T07:09:25.186Z,57056
2018-09-28T07:10:25.238Z,49024
2018-09-28T07:11:25.875Z,14864
2018-09-28T07:12:26.396Z,14748
2018-09-28T07:13:28.740Z,29536
2018-09-28T07:14:29.254Z,55520
2018-09-28T07:15:30.767Z,49824
2018-09-28T07:16:31.935Z,35680
2018-09-28T07:17:32.733Z,32864
2018-09-28T07:18:33.246Z,14920
2018-09-28T07:19:33.759Z,3560
2018-09-28T07:20:35.550Z,4012
2018-09-28T07:21:36.621Z,13816
2018-09-28T07:22:36.968Z,14660
2018-09-28T07:23:38.070Z,7544
2018-09-28T07:24:39.987Z,15904
2018-09-28T07:25:40.504Z,22304
2018-09-28T07:26:41.350Z,12416
2018-09-28T07:27:42.423Z,4928
2018-09-28T07:28:42.213Z,9304
2018-09-28T07:29:43.409Z,4380
2018-09-28T07:30:43.893Z,7884
2018-09-28T07:31:44.686Z,6200
2018-09-28T07:32:45.200Z,3192
2018-09-28T07:33:45.894Z,2884
2018-09-28T07:34:47.411Z,2860
2018-09-28T07:35:48.377Z,3232
2018-09-28T07:36:52.678Z,3740
2018-09-28T07:37:51.512Z,3568
2018-09-28T07:38:52.924Z,3316
2018-09-28T07:39:53.440Z,3324
2018-09-28T07:40:54.231Z,3292
2018-09-28T07:41:56.694Z,3268
2018-09-28T07:42:56.450Z,3240
2018-09-28T07:43:57.565Z,3224
2018-09-28T07:44:58.079Z,3212
2018-09-28T07:45:58.312Z,3204
2018-09-28T07:47:00.383Z,3192
2018-09-28T07:48:02.209Z,3176
2018-09-28T07:49:01.811Z,3160
2018-09-28T07:50:03.177Z,3176
2018-09-28T07:51:04.250Z,3172
2018-09-28T07:52:04.490Z,3148
2018-09-28T07:53:05.281Z,3148
2018-09-28T07:54:07.630Z,3148
2018-09-28T07:55:08.022Z,3144
2018-09-28T07:56:08.534Z,3180
2018-09-28T07:57:09.046Z,3512
2018-09-28T07:58:10.839Z,4116
2018-09-28T07:59:10.635Z,3980
2018-09-28T08:00:11.604Z,3240
2018-09-28T08:01:12.413Z,3048
2018-09-28T08:02:12.782Z,3068
2018-09-28T08:03:13.298Z,3220
2018-09-28T08:04:13.994Z,3244
2018-09-28T08:05:18.754Z,3220
2018-09-28T08:05:26.785Z,3144
2018-09-28T08:06:28.030Z,3180
2018-09-28T08:07:28.823Z,3004
2018-09-28T08:08:29.164Z,4388
2018-09-28T08:09:29.691Z,3916
2018-09-28T08:10:31.076Z,2968
2018-09-28T08:11:31.662Z,2928
2018-09-28T08:12:32.009Z,2932
2018-09-28T08:13:33.224Z,2940
2018-09-28T08:14:32.457Z,2952
2018-09-28T08:15:33.802Z,2956
2018-09-28T08:16:34.620Z,2956
2018-09-28T08:17:35.711Z,2972
2018-09-28T08:18:36.229Z,3012
2018-09-28T08:19:36.851Z,3100
2018-09-28T08:20:37.361Z,3268
2018-09-28T08:21:38.739Z,3520
2018-09-28T08:22:38.975Z,3944
2018-09-28T08:23:40.049Z,4096
2018-09-28T08:24:41.059Z,4168
2018-09-28T08:25:41.173Z,4144
2018-09-28T08:26:42.153Z,4136
2018-09-28T08:27:43.221Z,4132
2018-09-28T08:28:43.733Z,4184
2018-09-28T08:29:45.088Z,4120
2018-09-28T08:30:45.601Z,4156
2018-09-28T08:31:46.947Z,3992
2018-09-28T08:32:47.015Z,4064
2018-09-28T08:33:47.526Z,4088
2018-09-28T08:34:48.318Z,4100
2018-09-28T08:35:48.549Z,4308
2018-09-28T08:36:50.566Z,3864
2018-09-28T08:37:51.466Z,4332
2018-09-28T08:38:51.979Z,4508
2018-09-28T08:39:53.354Z,4720
2018-09-28T08:40:53.930Z,4772
2018-09-28T08:41:55.329Z,4712
2018-09-28T08:42:55.816Z,5036
2018-09-28T08:43:57.695Z,5308
2018-09-28T08:44:58.265Z,4848
2018-09-28T08:45:59.394Z,6788
2018-09-28T08:46:59.658Z,7360
2018-09-28T08:48:00.730Z,5836
2018-09-28T08:49:01.535Z,5120
2018-09-28T08:50:02.082Z,5072
2018-09-28T08:51:02.315Z,5004
2018-09-28T08:52:03.827Z,5088
2018-09-28T08:53:04.339Z,5024
2018-09-28T08:54:04.409Z,4516
2018-09-28T08:55:10.016Z,4628
2018-09-28T08:55:20.489Z,4500
2018-09-28T08:56:19.366Z,4584
2018-09-28T08:57:20.815Z,4648
2018-09-28T08:58:20.610Z,4568
2018-09-28T08:59:22.231Z,4256
2018-09-28T09:00:22.743Z,4060
2018-09-28T09:01:24.397Z,3604
2018-09-28T09:02:25.020Z,3308
2018-09-28T09:03:25.126Z,3188
2018-09-28T09:04:25.704Z,3088
2018-09-28T09:05:26.489Z,3064
2018-09-28T09:06:27.138Z,3076
2018-09-28T09:07:27.208Z,3132
2018-09-28T09:08:27.999Z,3192
2018-09-28T09:09:28.794Z,3188
2018-09-28T09:10:30.013Z,3192
2018-09-28T09:11:30.294Z,3136
2018-09-28T09:12:31.803Z,3056
2018-09-28T09:13:33.156Z,3044
2018-09-28T09:14:34.221Z,3052
2018-09-28T09:15:35.018Z,3048
2018-09-28T09:16:36.363Z,3088
2018-09-28T09:17:37.152Z,3036
2018-09-28T09:18:38.778Z,3044
2018-09-28T09:19:39.128Z,3076
2018-09-28T09:20:40.475Z,3112
2018-09-28T09:21:40.824Z,3100
2018-09-28T09:22:41.612Z,3064
2018-09-28T09:23:42.679Z,3144
2018-09-28T09:24:42.472Z,3080
2018-09-28T09:25:44.262Z,3064
2018-09-28T09:26:44.248Z,2984
2018-09-28T09:27:45.318Z,4664
2018-09-28T09:28:46.392Z,14172
2018-09-28T09:29:48.183Z,16416
2018-09-28T09:30:48.987Z,10796
2018-09-28T09:31:49.509Z,6076
2018-09-28T09:32:51.019Z,4884
2018-09-28T09:33:51.256Z,12148
2018-09-28T09:34:53.326Z,7508
2018-09-28T09:35:54.118Z,6408
2018-09-28T09:36:55.868Z,5640
2018-09-28T09:37:56.662Z,3484
2018-09-28T09:38:57.174Z,14848
2018-09-28T09:39:58.788Z,33472
2018-09-28T09:40:58.861Z,33856
2018-09-28T09:41:59.682Z,15840
2018-09-28T09:43:00.204Z,11124
2018-09-28T09:44:00.724Z,10656
2018-09-28T09:45:01.517Z,6396
2018-09-28T09:46:03.148Z,4040
2018-09-28T09:47:03.111Z,3820
2018-09-28T09:48:03.690Z,3968
2018-09-28T09:49:03.928Z,3952
2018-09-28T09:50:05.280Z,6340
2018-09-28T09:51:06.340Z,6104
2018-09-28T09:52:06.317Z,14740
2018-09-28T09:53:07.133Z,35904
2018-09-28T09:54:07.482Z,43456
2018-09-28T09:55:07.735Z,43808
2018-09-28T09:56:08.366Z,42624
2018-09-28T09:57:10.000Z,42272
2018-09-28T09:58:11.779Z,41856
2018-09-28T09:59:11.552Z,42016
2018-09-28T10:00:11.792Z,41920
2018-09-28T10:01:12.310Z,41536
2018-09-28T10:02:13.149Z,40416
2018-09-28T10:03:14.545Z,40064
2018-09-28T10:04:14.929Z,39680
2018-09-28T10:05:16.003Z,39552
2018-09-28T10:06:15.823Z,39968
2018-09-28T10:07:17.957Z,39584
2018-09-28T10:08:17.852Z,39072
2018-09-28T10:09:18.504Z,38720
2018-09-28T10:10:19.087Z,38624
2018-09-28T10:11:20.991Z,38208
2018-09-28T10:12:21.632Z,38176
2018-09-28T10:13:22.127Z,38016
2018-09-28T10:14:23.202Z,37472
2018-09-28T10:15:24.008Z,37184
2018-09-28T10:16:24.524Z,36224
2018-09-28T10:17:25.233Z,36096
2018-09-28T10:18:25.758Z,36192
2018-09-28T10:19:27.151Z,36512
2018-09-28T10:20:27.618Z,35808
2018-09-28T10:21:28.147Z,35584
2018-09-28T10:22:29.232Z,35264
2018-09-28T10:23:29.749Z,34176
2018-09-28T10:24:31.435Z,33344
2018-09-28T10:25:31.929Z,33344
2018-09-28T10:26:33.008Z,32416
2018-09-28T10:27:34.531Z,30912
2018-09-28T10:28:35.127Z,29376
2018-09-28T10:29:35.308Z,29536
2018-09-28T10:30:36.096Z,30528
2018-09-28T10:31:36.897Z,31040
2018-09-28T10:32:37.696Z,30528
2018-09-28T10:33:40.820Z,30624
2018-09-28T10:34:40.717Z,30496
2018-09-28T10:35:41.260Z,30560
2018-09-28T10:36:42.616Z,29984
2018-09-28T10:37:43.462Z,29664
2018-09-28T10:38:43.744Z,29248
2018-09-28T10:39:45.342Z,29024
2018-09-28T10:40:47.204Z,28160
2018-09-28T10:41:46.232Z,27904
2018-09-28T10:42:52.551Z,27360
2018-09-28T10:43:00.263Z,27328
2018-09-28T10:43:59.536Z,26848
2018-09-28T10:45:00.408Z,15584
2018-09-28T10:46:01.232Z,6768
2018-09-28T10:47:02.582Z,18112
2018-09-28T10:48:03.505Z,9636
2018-09-28T10:49:05.138Z,17664
2018-09-28T10:50:04.660Z,15200
2018-09-28T10:51:05.742Z,12852
2018-09-28T10:52:07.261Z,8484
2018-09-28T10:53:08.737Z,10440
2018-09-28T10:54:08.900Z,11736
2018-09-28T10:55:08.419Z,8000
2018-09-28T10:56:09.498Z,5064
2018-09-28T10:57:10.942Z,3960
2018-09-28T10:58:12.573Z,7532
2018-09-28T10:59:12.074Z,8096
2018-09-28T11:00:13.220Z,3928
2018-09-28T11:01:13.583Z,6140
2018-09-28T11:02:14.378Z,7404
2018-09-28T11:03:15.944Z,5316
2018-09-28T11:04:16.705Z,11848
2018-09-28T11:05:19.067Z,10676
2018-09-28T11:06:18.108Z,6340
2018-09-28T11:07:19.198Z,3920
2018-09-28T11:08:19.823Z,4452
2018-09-28T11:09:22.104Z,5916
2018-09-28T11:10:23.137Z,3744
2018-09-28T11:11:22.718Z,4156
2018-09-28T11:12:23.253Z,3852
2018-09-28T11:13:24.543Z,3656
2018-09-28T11:14:25.349Z,3592
2018-09-28T11:15:26.472Z,3660
2018-09-28T11:16:27.058Z,4020
2018-09-28T11:17:27.850Z,4172
2018-09-28T11:18:27.927Z,8920
2018-09-28T11:19:29.556Z,6780
2018-09-28T11:20:29.913Z,5216
2018-09-28T11:21:31.487Z,5504
2018-09-28T11:22:31.828Z,5580
2018-09-28T11:23:32.345Z,4032
2018-09-28T11:24:33.528Z,3780
2018-09-28T11:25:33.326Z,3616
2018-09-28T11:26:34.119Z,3756
2018-09-28T11:27:35.672Z,4120
2018-09-28T11:28:35.720Z,6252
2018-09-28T11:29:36.513Z,5088
2018-09-28T11:30:36.864Z,6408
2018-09-28T11:31:37.657Z,6424
2018-09-28T11:32:39.282Z,6548
2018-09-28T11:33:41.092Z,3732
2018-09-28T11:34:41.105Z,3372
2018-09-28T11:35:41.623Z,3136
2018-09-28T11:36:41.865Z,3048
2018-09-28T11:37:43.513Z,3244
2018-09-28T11:38:44.255Z,3456
2018-09-28T11:39:46.089Z,3752
2018-09-28T11:40:46.007Z,5676
2018-09-28T11:41:46.523Z,5316
2018-09-28T11:42:47.885Z,5088
2018-09-28T11:43:48.403Z,4776
2018-09-28T11:44:49.088Z,5260
2018-09-28T11:45:50.273Z,5980
2018-09-28T11:46:51.104Z,5900
2018-09-28T11:47:51.479Z,4832
2018-09-28T11:48:51.993Z,6436
2018-09-28T11:49:53.065Z,4820
2018-09-28T11:50:53.579Z,4768
2018-09-28T11:52:00.151Z,6804
2018-09-28T11:52:11.023Z,6832
2018-09-28T11:52:18.460Z,6804
2018-09-28T11:53:18.879Z,6584
2018-09-28T11:54:19.401Z,5100
2018-09-28T11:55:20.747Z,6352
2018-09-28T11:56:21.820Z,6272
2018-09-28T11:57:23.939Z,6504
2018-09-28T11:58:23.417Z,6576
2018-09-28T11:59:25.207Z,6832
2018-09-28T12:00:25.559Z,6856
2018-09-28T12:01:26.636Z,8204
2018-09-28T12:02:27.440Z,7920
2018-09-28T12:03:30.691Z,7432
2018-09-28T12:04:30.716Z,7588
2018-09-28T12:05:31.638Z,7248
2018-09-28T12:06:33.375Z,3364
2018-09-28T12:07:34.524Z,2792
2018-09-28T12:08:33.544Z,2648
2018-09-28T12:09:34.224Z,2764
2018-09-28T12:10:35.039Z,6644
2018-09-28T12:11:36.389Z,6884
2018-09-28T12:12:37.266Z,4972
2018-09-28T12:13:37.686Z,7292
2018-09-28T12:14:37.927Z,4480
2018-09-28T12:15:40.742Z,4048
2018-09-28T12:16:40.072Z,3944
2018-09-28T12:17:40.590Z,3444
2018-09-28T12:18:43.055Z,3360
2018-09-28T12:19:41.927Z,3536
2018-09-28T12:20:42.448Z,3628
2018-09-28T12:22:44.300Z,3796
2018-09-28T12:23:45.271Z,3948
2018-09-28T12:24:47.469Z,3584
2018-09-28T12:25:47.121Z,3572
2018-09-28T12:26:48.753Z,3496
2018-09-28T12:27:50.301Z,3876
2018-09-28T12:28:50.257Z,5228
2018-09-28T12:29:51.056Z,3572
2018-09-28T12:30:52.780Z,3960
2018-09-28T12:31:52.855Z,3836
2018-09-28T12:32:53.650Z,3376
2018-09-28T12:33:54.043Z,3244
2018-09-28T12:34:54.838Z,3468
2018-09-28T12:35:55.242Z,6624
2018-09-28T12:36:56.038Z,8008
2018-09-28T12:37:57.664Z,7988
2018-09-28T12:38:58.309Z,7776
2018-09-28T12:40:01.319Z,7944
2018-09-28T12:41:00.802Z,7508
2018-09-28T12:42:01.599Z,7328
2018-09-28T12:43:05.145Z,3992
2018-09-28T12:44:06.137Z,3416
2018-09-28T12:45:05.918Z,5708
2018-09-28T12:46:06.353Z,6096
2018-09-28T12:47:08.448Z,5736
2018-09-28T12:48:09.569Z,5900
2018-09-28T12:49:08.692Z,3892
2018-09-28T12:50:10.212Z,5516
2018-09-28T12:51:11.202Z,5428
2018-09-28T12:52:10.719Z,7152
2018-09-28T12:53:11.517Z,7192
2018-09-28T12:54:13.261Z,3420
2018-09-28T12:55:13.765Z,4168
2018-09-28T12:56:15.355Z,5788
2018-09-28T12:57:16.134Z,3108
2018-09-28T12:58:17.403Z,3204
2018-09-28T12:59:17.468Z,3832
2018-09-28T13:00:19.112Z,3276
2018-09-28T13:01:20.237Z,3296
2018-09-28T13:02:22.278Z,3204
2018-09-28T13:03:21.934Z,3236
2018-09-28T13:04:23.269Z,6296
2018-09-28T13:05:24.064Z,2872
2018-09-28T13:06:27.137Z,2796
2018-09-28T13:07:26.767Z,2788
2018-09-28T13:08:28.418Z,2748
2018-09-28T13:09:28.724Z,2680
2018-09-28T13:10:30.071Z,2508
2018-09-28T13:11:30.424Z,2604
2018-09-28T13:12:32.668Z,2112
2018-09-28T13:13:31.587Z,1948
2018-09-28T13:14:33.360Z,1912
2018-09-28T13:15:33.223Z,1844
2018-09-28T13:16:34.470Z,1856
2018-09-28T13:17:35.398Z,1800
2018-09-28T13:18:37.016Z,1784
2018-09-28T13:19:37.147Z,1884
2018-09-28T13:20:37.773Z,2100
2018-09-28T13:21:37.940Z,2080
2018-09-28T13:22:38.822Z,2076
2018-09-28T13:23:40.341Z,1988
2018-09-28T13:24:42.829Z,1932
2018-09-28T13:25:42.741Z,1960
2018-09-28T13:26:45.521Z,1948
2018-09-28T13:27:45.055Z,1900
2018-09-28T13:28:46.263Z,1812
2018-09-28T13:29:47.424Z,1808
2018-09-28T13:30:48.410Z,1800
2018-09-28T13:31:49.259Z,1728
2018-09-28T13:32:49.942Z,1676
2018-09-28T13:33:49.608Z,1532
2018-09-28T13:34:51.405Z,1352
2018-09-28T13:35:52.219Z,1276
2018-09-28T13:36:53.065Z,1236
2018-09-28T13:37:54.576Z,1208
2018-09-28T13:38:56.153Z,1188
2018-09-28T13:39:56.605Z,1152
2018-09-28T13:40:57.404Z,1112
2018-09-28T13:41:58.203Z,1108
2018-09-28T13:42:59.454Z,1116
2018-09-28T13:44:00.249Z,1064
2018-09-28T13:45:03.045Z,980
2018-09-28T13:46:03.287Z,960
2018-09-28T13:47:04.486Z,960
2018-09-28T13:48:05.285Z,940
2018-09-28T13:49:06.737Z,980
2018-09-28T13:50:07.900Z,1028
2018-09-28T13:51:08.723Z,1020
2018-09-28T13:52:10.855Z,1040
2018-09-28T13:53:11.006Z,1028
2018-09-28T13:54:12.830Z,1076